Time;durP1;ratioP1;P1;durP2;ratioP2;P2;SDS_P1;SDS_P2;PMS_P1;PMS_P2;Temp;Humidity;BMP_temperature;BMP_pressure;BME280_temperature;BME280_humidity;BME280_pressure;Samples;Min_cycle;Max_cycle;Signal;HPM_P1;HPM_P2
2024/01/22 00:01:27;;;;;;;11.27;3.95;;;7.50;99.90;;;;;;5113288;28;20039;-84
2024/01/22 00:03:53;;;;;;;6.63;3.50;;;7.20;99.90;;;;;;5115124;28;20388;-84
2024/01/22 00:06:19;;;;;;;9.02;4.03;;;7.40;99.90;;;;;;5096442;28;20047;-84
2024/01/22 00:08:44;;;;;;;7.28;3.65;;;7.70;99.90;;;;;;5113809;28;20096;-84
2024/01/22 00:11:11;;;;;;;10.20;4.15;;;7.80;99.90;;;;;;5113317;28;20138;-84
2024/01/22 00:13:37;;;;;;;12.88;4.05;;;7.60;99.90;;;;;;5113751;28;20047;-84
2024/01/22 00:16:02;;;;;;;7.03;3.78;;;7.30;99.90;;;;;;5113317;28;20044;-84
2024/01/22 00:18:28;;;;;;;9.25;4.22;;;6.60;99.90;;;;;;5096106;28;20097;-84
2024/01/22 00:20:54;;;;;;;11.60;4.25;;;6.90;99.90;;;;;;5112880;28;20055;-84
2024/01/22 00:23:20;;;;;;;11.48;4.15;;;7.30;99.90;;;;;;5113960;28;20496;-84
2024/01/22 00:25:45;;;;;;;8.52;3.95;;;7.50;99.90;;;;;;5095921;28;20559;-84
2024/01/22 00:28:11;;;;;;;11.43;4.28;;;6.70;99.90;;;;;;5113020;28;20392;-84
2024/01/22 00:30:36;;;;;;;10.73;4.32;;;6.70;99.90;;;;;;5114418;28;20396;-84
2024/01/22 00:33:02;;;;;;;11.30;4.65;;;7.50;99.90;;;;;;5112699;28;20399;-84
2024/01/22 00:35:28;;;;;;;8.02;4.15;;;6.90;99.90;;;;;;5113016;28;20459;-84
2024/01/22 00:37:54;;;;;;;9.15;4.18;;;6.80;99.90;;;;;;5114550;28;20376;-84
2024/01/22 00:40:19;;;;;;;11.57;4.03;;;7.60;99.90;;;;;;5114113;28;20050;-84
2024/01/22 00:42:45;;;;;;;9.52;3.78;;;7.70;99.90;;;;;;5112818;28;20106;-84
2024/01/22 00:45:11;;;;;;;10.05;3.72;;;8.10;99.90;;;;;;5112823;28;20054;-83
2024/01/22 00:47:37;;;;;;;5.68;3.42;;;7.80;99.90;;;;;;5113588;28;20059;-84
2024/01/22 00:50:04;;;;;;;7.38;3.83;;;8.10;99.90;;;;;;5112666;28;20058;-84
2024/01/22 00:52:29;;;;;;;11.18;3.30;;;6.90;99.90;;;;;;5113057;28;20036;-84
2024/01/22 00:54:55;;;;;;;7.38;3.70;;;7.40;99.90;;;;;;5112811;28;20043;-85
2024/01/22 00:57:21;;;;;;;10.80;4.05;;;8.60;99.90;;;;;;5112467;28;20085;-84
2024/01/22 00:59:46;;;;;;;8.48;3.85;;;7.20;99.90;;;;;;5112673;28;20083;-84
2024/01/22 01:02:12;;;;;;;7.03;3.47;;;7.40;99.90;;;;;;5112929;28;20040;-84
2024/01/22 01:04:38;;;;;;;7.70;3.45;;;7.60;99.90;;;;;;5113395;28;20104;-84
2024/01/22 01:07:04;;;;;;;8.43;3.75;;;7.80;99.90;;;;;;5112103;28;20051;-84
2024/01/22 01:09:29;;;;;;;10.60;3.80;;;7.90;99.90;;;;;;5112818;28;20139;-84
2024/01/22 01:11:55;;;;;;;10.50;3.67;;;7.10;99.90;;;;;;5113879;28;20085;-85
2024/01/22 01:14:21;;;;;;;7.82;3.95;;;7.70;99.90;;;;;;5112190;28;20077;-84
2024/01/22 01:16:46;;;;;;;11.02;4.05;;;8.60;99.90;;;;;;5112365;28;20071;-84
2024/01/22 01:19:12;;;;;;;6.57;3.53;;;7.20;99.90;;;;;;5112594;28;20075;-84
2024/01/22 01:21:41;;;;;;;10.55;3.88;;;7.50;99.90;;;;;;5113398;28;20051;-84
2024/01/22 01:24:08;;;;;;;8.38;3.55;;;7.40;99.90;;;;;;5112118;28;20051;-84
2024/01/22 01:26:42;;;;;;;10.95;4.00;;;7.70;99.90;;;;;;5113637;28;20051;-85
2024/01/22 01:29:09;;;;;;;6.22;3.25;;;7.20;99.90;;;;;;5113472;28;20036;-84
2024/01/22 01:31:35;;;;;;;10.07;4.03;;;7.40;99.90;;;;;;5111901;28;20043;-84
2024/01/22 01:34:01;;;;;;;7.95;4.05;;;7.20;99.90;;;;;;5112165;28;20194;-84
2024/01/22 01:36:26;;;;;;;9.02;3.80;;;7.40;99.90;;;;;;5113573;28;20122;-84
2024/01/22 01:38:52;;;;;;;8.68;3.67;;;7.70;99.90;;;;;;5112094;28;20193;-84
2024/01/22 01:41:17;;;;;;;7.55;3.83;;;8.10;99.90;;;;;;5113379;28;20048;-84
2024/01/22 01:43:43;;;;;;;8.32;3.60;;;7.50;99.90;;;;;;5111544;28;20101;-84
2024/01/22 01:46:09;;;;;;;8.18;3.83;;;7.80;99.90;;;;;;5094783;28;20040;-83
2024/01/22 01:48:35;;;;;;;6.30;2.90;;;7.90;99.90;;;;;;5112686;28;20039;-84
2024/01/22 01:51:02;;;;;;;9.02;3.33;;;8.60;99.90;;;;;;5112242;28;20043;-84
2024/01/22 01:53:28;;;;;;;6.78;3.13;;;8.10;99.90;;;;;;5112256;28;20054;-84
2024/01/22 01:55:54;;;;;;;8.65;3.30;;;8.30;99.90;;;;;;5113394;28;20047;-84
2024/01/22 01:58:21;;;;;;;7.20;2.95;;;7.90;99.90;;;;;;5113092;28;20113;-85
2024/01/22 02:00:52;;;;;;;8.88;3.30;;;8.50;99.90;;;;;;5112816;28;20040;-84
2024/01/22 02:03:17;;;;;;;8.00;3.08;;;7.90;99.90;;;;;;5111469;28;20032;-83
2024/01/22 02:05:43;;;;;;;6.20;3.25;;;8.40;99.90;;;;;;5111611;28;20130;-84
2024/01/22 02:08:09;;;;;;;11.25;3.70;;;9.10;99.90;;;;;;5113308;28;20044;-84
2024/01/22 02:10:35;;;;;;;8.80;3.17;;;8.10;99.90;;;;;;5111475;28;20043;-84
2024/01/22 02:13:04;;;;;;;8.52;3.13;;;8.30;99.90;;;;;;5111928;28;20059;-84
2024/01/22 02:15:30;;;;;;;9.95;3.50;;;8.90;99.90;;;;;;5111931;28;20043;-84
2024/01/22 02:18:05;;;;;;;12.68;4.30;;;9.00;99.90;;;;;;5113013;28;20078;-84
2024/01/22 02:20:30;;;;;;;6.78;2.92;;;8.30;99.90;;;;;;5112414;28;20055;-84
2024/01/22 02:23:04;;;;;;;9.50;3.33;;;8.60;99.90;;;;;;5115603;28;20131;-85
2024/01/22 02:25:30;;;;;;;7.80;4.00;;;8.30;99.90;;;;;;5116892;27;20165;-85
2024/01/22 02:27:56;;;;;;;9.68;3.15;;;8.30;99.90;;;;;;5115452;28;20482;-84
2024/01/22 02:30:21;;;;;;;9.43;2.85;;;9.40;99.90;;;;;;5116692;28;20047;-83
2024/01/22 02:32:47;;;;;;;8.45;3.15;;;9.00;99.90;;;;;;5116536;28;20050;-85
2024/01/22 02:35:13;;;;;;;6.63;3.00;;;8.30;99.90;;;;;;5115153;28;20122;-84
2024/01/22 02:37:39;;;;;;;7.28;3.53;;;8.60;99.90;;;;;;5116453;28;20035;-83
2024/01/22 02:40:06;;;;;;;7.65;2.33;;;8.40;99.90;;;;;;5095678;28;20086;-84
2024/01/22 02:42:32;;;;;;;5.50;3.00;;;8.40;99.90;;;;;;5109272;28;20040;-84
2024/01/22 02:44:59;;;;;;;9.18;3.33;;;8.50;99.90;;;;;;5115065;28;20407;-84
2024/01/22 02:47:24;;;;;;;8.82;3.03;;;8.50;99.90;;;;;;5097730;28;20044;-83
2024/01/22 02:49:50;;;;;;;5.18;3.10;;;9.50;99.90;;;;;;5115380;28;20175;-83
2024/01/22 02:52:16;;;;;;;8.48;3.15;;;9.90;99.90;;;;;;5116526;28;20052;-84
2024/01/22 02:54:42;;;;;;;5.43;2.88;;;8.50;99.90;;;;;;5114885;28;20043;-84
2024/01/22 02:57:09;;;;;;;3.63;2.50;;;9.10;99.90;;;;;;5114215;28;20515;-83
2024/01/22 02:59:36;;;;;;;6.45;2.65;;;8.80;99.90;;;;;;5114627;28;20047;-84
2024/01/22 03:02:05;;;;;;;6.43;2.38;;;9.30;99.90;;;;;;5114566;28;20043;-84
2024/01/22 03:04:31;;;;;;;5.75;2.10;;;8.70;99.90;;;;;;5115917;28;20071;-84
2024/01/22 03:06:56;;;;;;;6.88;2.45;;;8.70;99.90;;;;;;5115035;28;20050;-83
2024/01/22 03:09:22;;;;;;;4.95;1.92;;;8.70;99.90;;;;;;5114661;28;20077;-84
2024/01/22 03:11:48;;;;;;;6.07;2.83;;;9.20;99.90;;;;;;5114220;28;20050;-84
2024/01/22 03:14:14;;;;;;;5.78;2.65;;;9.50;99.90;;;;;;5114374;28;20051;-84
2024/01/22 03:16:40;;;;;;;7.47;2.53;;;8.80;99.90;;;;;;5097838;28;20043;-84
2024/01/22 03:19:05;;;;;;;6.32;2.38;;;8.70;99.90;;;;;;5115608;28;20500;-84
2024/01/22 03:21:31;;;;;;;7.13;2.85;;;8.70;99.90;;;;;;5115419;28;20109;-83
2024/01/22 03:23:57;;;;;;;5.95;2.95;;;8.70;99.90;;;;;;5115860;28;20042;-84
2024/01/22 03:26:23;;;;;;;4.60;2.35;;;9.60;99.90;;;;;;5115446;28;20055;-84
2024/01/22 03:28:50;;;;;;;4.85;2.28;;;9.30;99.90;;;;;;5114057;28;20044;-84
2024/01/22 03:31:25;;;;;;;3.70;2.55;;;8.80;99.90;;;;;;5114234;28;20127;-84
2024/01/22 03:33:52;;;;;;;6.55;2.80;;;8.70;99.90;;;;;;5113515;28;20040;-84
2024/01/22 03:36:18;;;;;;;8.60;2.45;;;8.80;99.90;;;;;;5114146;28;20082;-84
2024/01/22 03:38:44;;;;;;;5.10;2.20;;;9.40;99.90;;;;;;5114141;28;20039;-84
2024/01/22 03:41:09;;;;;;;4.70;2.10;;;9.60;99.90;;;;;;5113951;28;20039;-83
2024/01/22 03:43:35;;;;;;;5.15;2.00;;;8.70;99.90;;;;;;5115387;28;20046;-83
2024/01/22 03:46:01;;;;;;;5.10;2.08;;;8.90;99.90;;;;;;5113926;28;20126;-84
2024/01/22 03:48:27;;;;;;;4.93;2.30;;;8.90;99.90;;;;;;5115303;28;20465;-84
2024/01/22 03:50:54;;;;;;;5.82;2.38;;;8.60;99.90;;;;;;5115207;28;20079;-83
2024/01/22 03:53:20;;;;;;;3.33;2.05;;;8.70;99.90;;;;;;5115331;28;20040;-84
2024/01/22 03:55:46;;;;;;;4.00;1.83;;;8.80;99.90;;;;;;5113986;28;20486;-84
2024/01/22 03:58:12;;;;;;;4.80;1.90;;;8.90;99.90;;;;;;5115270;28;20083;-83
2024/01/22 04:00:38;;;;;;;3.80;1.52;;;8.70;99.90;;;;;;5114953;28;20117;-84
2024/01/22 04:03:04;;;;;;;2.85;1.73;;;8.70;99.90;;;;;;5113363;28;20047;-83
2024/01/22 04:05:31;;;;;;;2.90;1.80;;;8.80;99.90;;;;;;5113755;28;20381;-83
2024/01/22 04:07:57;;;;;;;3.72;1.83;;;8.80;99.90;;;;;;5115067;28;20071;-84
2024/01/22 04:10:23;;;;;;;3.03;1.42;;;8.80;99.90;;;;;;5113721;28;20043;-83
2024/01/22 04:12:49;;;;;;;3.75;1.70;;;10.00;99.90;;;;;;5114937;28;20118;-84
2024/01/22 04:15:15;;;;;;;5.47;1.50;;;9.60;99.90;;;;;;5114827;28;20196;-84
2024/01/22 04:17:42;;;;;;;2.83;1.55;;;9.60;99.90;;;;;;5113404;28;20108;-84
2024/01/22 04:20:08;;;;;;;3.35;1.52;;;9.90;99.90;;;;;;5114205;28;20051;-83
2024/01/22 04:22:33;;;;;;;1.67;1.25;;;9.00;99.90;;;;;;5096145;28;20135;-83
2024/01/22 04:24:59;;;;;;;4.50;1.55;;;9.00;99.90;;;;;;5096310;28;20466;-83
2024/01/22 04:27:25;;;;;;;4.68;1.35;;;8.90;99.90;;;;;;5113454;28;20047;-84
2024/01/22 04:29:50;;;;;;;2.40;1.30;;;9.00;99.90;;;;;;5113513;28;20039;-84
2024/01/22 04:32:16;;;;;;;7.38;1.50;;;9.10;99.90;;;;;;5113228;28;20484;-83
2024/01/22 04:34:42;;;;;;;3.08;1.40;;;9.40;99.90;;;;;;5113005;28;20054;-83
2024/01/22 04:37:08;;;;;;;3.67;1.33;;;9.10;99.90;;;;;;5114423;28;20088;-83
2024/01/22 04:39:34;;;;;;;2.50;1.33;;;9.10;99.90;;;;;;5113089;28;20446;-84
2024/01/22 04:42:00;;;;;;;1.92;1.15;;;9.70;99.90;;;;;;5114443;28;20040;-86
2024/01/22 04:44:29;;;;;;;4.13;1.77;;;9.20;99.90;;;;;;5112704;28;20368;-84
2024/01/22 04:46:55;;;;;;;3.40;1.45;;;9.10;99.90;;;;;;5113760;28;20044;-84
2024/01/22 04:49:21;;;;;;;2.25;1.30;;;9.50;99.90;;;;;;5112730;28;20040;-86
2024/01/22 04:51:47;;;;;;;2.33;1.30;;;9.10;99.90;;;;;;5113127;28;20043;-85
2024/01/22 04:54:13;;;;;;;3.55;1.23;;;10.20;99.90;;;;;;5114359;28;20088;-84
2024/01/22 04:56:44;;;;;;;2.88;1.60;;;9.20;99.90;;;;;;5111940;28;20039;-85
2024/01/22 04:59:09;;;;;;;2.45;1.50;;;9.50;99.90;;;;;;5095661;28;20059;-85
2024/01/22 05:01:35;;;;;;;3.90;1.58;;;9.20;99.90;;;;;;5112574;28;20035;-85
2024/01/22 05:04:01;;;;;;;3.22;1.52;;;10.00;99.90;;;;;;5112815;28;20365;-84
2024/01/22 05:06:27;;;;;;;2.97;1.40;;;9.90;99.90;;;;;;5112382;28;20050;-87
2024/01/22 05:08:53;;;;;;;2.50;1.50;;;10.00;99.90;;;;;;5112577;28;20377;-84
2024/01/22 05:11:18;;;;;;;2.30;1.45;;;10.10;99.90;;;;;;5113182;28;20122;-84
2024/01/22 05:14:03;;;;;;;1.50;1.15;;;9.40;99.90;;;;;;5112320;28;20075;-84
2024/01/22 05:16:28;;;;;;;1.92;1.30;;;9.40;99.90;;;;;;5113619;28;20043;-86
2024/01/22 05:18:54;;;;;;;2.72;1.30;;;9.60;99.90;;;;;;5112368;28;20126;-85
2024/01/22 05:21:21;;;;;;;5.63;1.50;;;9.60;99.90;;;;;;5113754;28;20105;-85
2024/01/22 05:23:47;;;;;;;2.03;1.38;;;9.80;99.90;;;;;;5113914;28;20048;-86
2024/01/22 05:26:12;;;;;;;2.35;1.30;;;9.50;99.90;;;;;;5112802;28;20057;-86
2024/01/22 05:28:38;;;;;;;1.35;1.13;;;9.60;99.90;;;;;;5112544;28;20044;-85
2024/01/22 05:31:04;;;;;;;2.97;1.20;;;9.80;99.90;;;;;;5112203;28;20047;-85
2024/01/22 05:33:30;;;;;;;2.00;1.42;;;9.70;99.90;;;;;;5112282;28;20089;-84
2024/01/22 05:35:55;;;;;;;1.83;1.10;;;9.70;99.90;;;;;;5113620;28;20168;-84
2024/01/22 05:38:22;;;;;;;2.53;1.25;;;9.70;99.90;;;;;;5112540;28;20054;-84
2024/01/22 05:40:48;;;;;;;2.72;1.25;;;9.80;99.90;;;;;;5095258;28;20043;-84
2024/01/22 05:43:13;;;;;;;2.00;1.00;;;9.90;99.90;;;;;;5113531;28;20046;-84
2024/01/22 05:45:39;;;;;;;2.40;1.13;;;10.20;99.90;;;;;;5111547;28;20407;-86
2024/01/22 05:48:06;;;;;;;2.78;0.98;;;10.10;99.90;;;;;;5094576;28;20036;-85
2024/01/22 05:50:32;;;;;;;3.38;1.10;;;10.00;99.90;;;;;;5112043;28;20104;-84
2024/01/22 05:52:58;;;;;;;4.57;0.95;;;10.10;99.90;;;;;;5095322;28;20048;-85
2024/01/22 05:55:24;;;;;;;2.03;0.85;;;11.20;99.90;;;;;;5112569;28;20126;-84
2024/01/22 05:57:50;;;;;;;6.03;1.05;;;10.20;99.90;;;;;;5098934;28;20043;-84
2024/01/22 06:00:19;;;;;;;5.13;0.90;;;10.70;99.90;;;;;;5117650;28;20078;-84
2024/01/22 06:02:44;;;;;;;5.30;0.90;;;10.30;99.90;;;;;;5098866;28;20043;-84
2024/01/22 06:05:10;;;;;;;3.13;0.80;;;11.10;99.90;;;;;;5115511;28;20035;-85
2024/01/22 06:07:38;;;;;;;1.95;0.60;;;10.40;99.90;;;;;;5115628;28;20043;-84
2024/01/22 06:10:06;;;;;;;3.25;0.65;;;11.60;99.90;;;;;;5117030;28;20031;-85
2024/01/22 06:12:32;;;;;;;3.53;0.90;;;10.50;99.90;;;;;;5116062;28;20043;-85
2024/01/22 06:14:58;;;;;;;2.60;0.98;;;10.50;99.90;;;;;;5115902;28;20043;-84
2024/01/22 06:17:24;;;;;;;2.88;0.70;;;11.00;99.90;;;;;;5116873;28;20447;-87
2024/01/22 06:19:50;;;;;;;3.85;0.60;;;10.70;99.90;;;;;;5115609;28;20047;-85
2024/01/22 06:22:17;;;;;;;3.40;0.70;;;10.20;99.90;;;;;;5115311;28;20052;-83
2024/01/22 06:24:44;;;;;;;2.53;0.38;;;10.50;99.90;;;;;;5116503;28;20119;-84
2024/01/22 06:27:10;;;;;;;2.50;0.52;;;11.20;99.90;;;;;;5116756;28;20047;-85
2024/01/22 06:29:35;;;;;;;7.90;0.90;;;10.70;99.90;;;;;;5115130;28;20403;-83
2024/01/22 06:32:02;;;;;;;3.95;0.65;;;10.40;99.90;;;;;;5114731;28;20047;-84
2024/01/22 06:34:27;;;;;;;2.50;0.70;;;10.90;99.90;;;;;;5114926;28;20043;-82
2024/01/22 06:36:53;;;;;;;5.45;0.80;;;10.40;99.90;;;;;;5116939;28;20046;-82
2024/01/22 06:39:19;;;;;;;3.33;0.70;;;10.20;99.90;;;;;;5115028;28;20127;-85
2024/01/22 06:41:44;;;;;;;5.22;0.82;;;10.50;99.90;;;;;;5114615;28;20048;-83
2024/01/22 06:44:10;;;;;;;7.25;1.75;;;10.40;99.90;;;;;;5115103;28;20093;-83
2024/01/22 06:46:36;;;;;;;7.38;1.30;;;10.40;99.90;;;;;;5115260;28;20044;-83
2024/01/22 06:49:02;;;;;;;2.25;0.75;;;10.30;99.90;;;;;;5124993;27;20043;-85
2024/01/22 06:51:29;;;;;;;5.25;1.02;;;10.30;99.90;;;;;;5111372;27;20054;-84
2024/01/22 06:53:58;;;;;;;9.38;1.20;;;10.00;99.90;;;;;;5115432;28;20059;-84
2024/01/22 06:56:23;;;;;;;13.35;1.60;;;10.50;99.90;;;;;;5114769;28;20036;-83
2024/01/22 06:58:49;;;;;;;5.60;1.40;;;11.20;99.90;;;;;;5116279;28;20043;-83
2024/01/22 07:01:14;;;;;;;10.13;1.75;;;11.30;99.90;;;;;;5115063;28;20058;-83
2024/01/22 07:03:40;;;;;;;10.18;1.50;;;10.50;99.90;;;;;;5114709;28;20046;-83
2024/01/22 07:06:06;;;;;;;22.67;2.05;;;11.00;99.90;;;;;;5114969;28;20058;-84
2024/01/22 07:08:32;;;;;;;13.23;1.92;;;10.30;99.90;;;;;;5115165;28;20046;-83
2024/01/22 07:11:00;;;;;;;12.70;1.60;;;10.30;99.90;;;;;;5114458;28;20058;-83
2024/01/22 07:13:28;;;;;;;10.02;1.92;;;11.40;99.90;;;;;;5114881;28;20392;-85
2024/01/22 07:15:54;;;;;;;13.82;2.78;;;10.80;99.90;;;;;;5114735;28;20134;-83
2024/01/22 07:18:19;;;;;;;9.02;1.50;;;10.50;99.90;;;;;;5114370;28;20173;-84
2024/01/22 07:20:45;;;;;;;17.38;2.25;;;11.50;99.90;;;;;;5116125;27;20122;-83
2024/01/22 07:23:11;;;;;;;17.58;2.17;;;10.20;99.90;;;;;;5115747;28;20117;-84
2024/01/22 07:25:37;;;;;;;17.65;2.28;;;11.30;99.90;;;;;;5114030;28;20043;-83
2024/01/22 07:28:04;;;;;;;26.27;3.50;;;10.20;99.90;;;;;;5114637;28;20078;-83
2024/01/22 07:30:29;;;;;;;25.48;4.13;;;10.20;99.90;;;;;;5115769;28;20044;-84
2024/01/22 07:32:56;;;;;;;21.92;3.28;;;10.30;99.90;;;;;;5114652;28;20135;-83
2024/01/22 07:35:22;;;;;;;35.80;4.00;;;10.70;99.90;;;;;;5097724;28;20035;-83
2024/01/22 07:37:48;;;;;;;25.17;3.88;;;10.10;99.90;;;;;;5115785;28;20108;-83
2024/01/22 07:40:14;;;;;;;24.77;4.50;;;10.10;99.90;;;;;;5115147;27;20119;-84
2024/01/22 07:42:41;;;;;;;28.80;5.00;;;10.40;99.90;;;;;;5113782;28;20051;-82
2024/01/22 07:45:10;;;;;;;25.83;3.55;;;10.00;99.90;;;;;;5113640;28;20070;-83
2024/01/22 07:47:36;;;;;;;28.88;4.55;;;9.90;99.90;;;;;;5115230;28;20488;-84
2024/01/22 07:50:06;;;;;;;32.00;5.35;;;9.90;99.90;;;;;;5115519;27;20557;-85
2024/01/22 07:52:35;;;;;;;26.73;4.25;;;9.90;99.90;;;;;;5114013;28;20075;-83
2024/01/22 07:55:02;;;;;;;36.35;4.80;;;9.90;99.90;;;;;;5131427;27;20102;-86
2024/01/22 07:57:28;;;;;;;33.10;5.22;;;9.70;99.90;;;;;;5114872;27;20088;-85
2024/01/22 07:59:54;;;;;;;24.02;3.33;;;9.70;99.90;;;;;;5096897;28;20047;-83
2024/01/22 08:02:19;;;;;;;24.10;3.80;;;10.70;99.90;;;;;;5096761;28;20028;-84
2024/01/22 08:04:45;;;;;;;28.15;4.05;;;10.10;99.90;;;;;;5115078;28;20043;-83
2024/01/22 08:07:11;;;;;;;18.90;3.00;;;9.60;99.90;;;;;;5113475;28;20047;-84
2024/01/22 08:09:38;;;;;;;19.38;2.95;;;9.60;99.90;;;;;;5114041;28;20145;-83
2024/01/22 08:12:04;;;;;;;17.30;2.28;;;9.60;99.90;;;;;;5112815;28;20127;-84
2024/01/22 08:14:36;;;;;;;26.27;2.75;;;9.50;99.90;;;;;;5093639;28;20118;-84
2024/01/22 08:17:02;;;;;;;20.50;3.28;;;9.50;99.90;;;;;;5094389;28;20040;-88
2024/01/22 08:19:28;;;;;;;13.23;1.80;;;9.50;99.90;;;;;;5104397;28;20058;-86
2024/01/22 08:21:54;;;;;;;11.02;1.40;;;9.50;99.90;;;;;;5114265;28;20116;-85
2024/01/22 08:24:21;;;;;;;19.58;1.80;;;9.50;99.90;;;;;;5113115;28;20446;-83
2024/01/22 08:26:48;;;;;;;15.98;1.83;;;9.50;99.90;;;;;;5113673;28;20051;-84
2024/01/22 08:29:14;;;;;;;16.52;2.38;;;9.40;99.90;;;;;;5114384;28;20040;-84
2024/01/22 08:31:40;;;;;;;16.15;1.70;;;9.90;99.90;;;;;;5114513;28;20395;-83
2024/01/22 08:34:06;;;;;;;15.98;1.85;;;9.40;99.90;;;;;;5112630;28;20115;-84
2024/01/22 08:36:31;;;;;;;12.40;1.80;;;9.40;99.90;;;;;;5096551;28;20047;-84
2024/01/22 08:38:57;;;;;;;16.08;2.10;;;9.60;99.90;;;;;;5114526;28;20104;-84
2024/01/22 08:41:26;;;;;;;18.73;2.13;;;9.40;99.90;;;;;;5095667;28;20487;-84
2024/01/22 08:43:56;;;;;;;14.90;2.50;;;9.40;99.90;;;;;;5113077;28;20499;-84
2024/01/22 08:46:22;;;;;;;21.15;2.97;;;9.70;99.90;;;;;;5112730;28;20048;-84
2024/01/22 08:48:48;;;;;;;25.08;3.42;;;9.40;99.90;;;;;;5114107;28;20096;-83
2024/01/22 08:51:14;;;;;;;21.30;3.38;;;9.90;99.90;;;;;;5113071;28;20104;-84
2024/01/22 08:53:40;;;;;;;27.02;4.70;;;9.40;99.90;;;;;;5112691;28;20028;-84
2024/01/22 08:56:05;;;;;;;31.38;5.22;;;9.30;99.90;;;;;;5113956;28;20093;-84
2024/01/22 08:58:31;;;;;;;40.83;5.78;;;9.10;99.90;;;;;;5114142;28;20348;-84
2024/01/22 09:00:58;;;;;;;37.88;5.95;;;9.20;99.90;;;;;;5113767;28;20096;-84
2024/01/22 09:03:25;;;;;;;36.28;5.63;;;10.00;99.90;;;;;;5112592;28;20561;-84
2024/01/22 09:05:51;;;;;;;33.65;5.35;;;9.10;99.90;;;;;;5114033;28;20051;-83
2024/01/22 09:08:17;;;;;;;32.20;5.88;;;9.80;99.90;;;;;;5113725;28;20109;-84
2024/01/22 09:10:42;;;;;;;32.08;5.57;;;9.30;99.90;;;;;;5112505;28;20480;-84
2024/01/22 09:13:09;;;;;;;34.83;5.80;;;9.00;99.90;;;;;;5112415;28;20080;-84
2024/01/22 09:15:35;;;;;;;42.97;6.88;;;9.00;99.90;;;;;;5094966;28;20412;-85
2024/01/22 09:18:01;;;;;;;42.80;7.82;;;9.40;99.90;;;;;;5095538;28;20036;-85
2024/01/22 09:20:26;;;;;;;43.35;7.20;;;9.70;99.90;;;;;;5113247;28;20487;-85
2024/01/22 09:22:52;;;;;;;43.25;6.40;;;9.00;99.90;;;;;;5112508;28;20040;-86
2024/01/22 09:25:19;;;;;;;49.35;8.40;;;9.10;99.90;;;;;;5114203;28;20083;-84
2024/01/22 09:27:47;;;;;;;49.75;7.20;;;9.10;99.90;;;;;;5112023;28;20040;-84
2024/01/22 09:30:13;;;;;;;46.60;7.40;;;10.30;99.90;;;;;;5111785;28;20054;-84
2024/01/22 09:32:39;;;;;;;56.00;8.55;;;9.10;99.90;;;;;;5112267;28;20082;-84
2024/01/22 09:35:05;;;;;;;55.53;8.95;;;9.70;99.90;;;;;;5113726;28;20032;-84
2024/01/22 09:37:31;;;;;;;55.92;8.13;;;9.10;99.90;;;;;;5095470;28;20047;-84
2024/01/22 09:39:57;;;;;;;53.38;8.98;;;9.50;99.90;;;;;;5111323;28;20476;-84
2024/01/22 09:42:27;;;;;;;57.28;8.27;;;9.20;99.90;;;;;;5112247;28;20043;-84
2024/01/22 09:44:53;;;;;;;45.75;7.50;;;9.10;99.90;;;;;;5112370;28;20169;-85
2024/01/22 09:47:20;;;;;;;52.45;8.57;;;9.10;99.90;;;;;;5112179;28;20109;-84
2024/01/22 09:49:49;;;;;;;45.88;7.63;;;9.40;99.90;;;;;;5095141;28;20487;-85
2024/01/22 09:52:17;;;;;;;51.47;8.55;;;9.10;99.90;;;;;;5112240;28;20047;-84
2024/01/22 09:54:43;;;;;;;53.30;8.27;;;10.20;99.90;;;;;;5111346;28;20044;-83
2024/01/22 09:57:16;;;;;;;44.25;7.90;;;9.10;99.90;;;;;;5112199;28;20404;-83
2024/01/22 09:59:43;;;;;;;56.08;8.05;;;9.60;99.90;;;;;;5111389;28;20047;-84
2024/01/22 10:02:13;;;;;;;40.78;7.65;;;9.10;99.90;;;;;;5111991;28;20449;-84
2024/01/22 10:04:39;;;;;;;49.47;7.63;;;8.80;99.90;;;;;;5113190;28;20046;-84
2024/01/22 10:07:06;;;;;;;52.42;6.95;;;10.00;99.90;;;;;;5112442;28;20410;-83
2024/01/22 10:09:32;;;;;;;42.75;6.93;;;10.00;99.90;;;;;;5113407;28;20082;-85
2024/01/22 10:11:58;;;;;;;40.45;7.00;;;9.20;99.90;;;;;;5110867;28;20172;-83
2024/01/22 10:14:31;;;;;;;39.95;7.03;;;10.00;99.90;;;;;;5113002;28;20051;-83
2024/01/22 10:17:13;;;;;;;45.63;8.35;;;9.60;99.90;;;;;;5113019;28;20048;-84
2024/01/22 10:19:39;;;;;;;48.13;6.97;;;9.90;99.90;;;;;;5111735;28;20050;-84
2024/01/22 10:22:04;;;;;;;36.35;6.40;;;9.40;99.90;;;;;;5111823;28;20051;-84
2024/01/22 10:24:30;;;;;;;44.85;6.38;;;9.40;99.90;;;;;;5112893;28;20146;-85
2024/01/22 10:27:15;;;;;;;37.45;6.18;;;9.40;99.90;;;;;;5111252;28;20495;-84
2024/01/22 10:29:45;;;;;;;46.53;7.60;;;9.40;99.90;;;;;;5111532;28;20156;-83
2024/01/22 10:32:11;;;;;;;36.88;6.40;;;9.40;99.90;;;;;;5112980;28;20044;-83
2024/01/22 10:34:50;;;;;;;30.25;5.25;;;10.20;99.90;;;;;;5111782;28;20039;-83
2024/01/22 10:37:17;;;;;;;35.53;6.30;;;9.60;99.90;;;;;;5111718;28;20049;-84
2024/01/22 10:39:44;;;;;;;41.15;5.53;;;10.60;99.90;;;;;;5094600;28;20040;-84
2024/01/22 10:42:11;;;;;;;39.72;5.78;;;9.40;99.90;;;;;;5096502;28;20058;-83
2024/01/22 10:44:38;;;;;;;25.48;4.20;;;9.50;99.90;;;;;;5115446;28;20044;-84
2024/01/22 10:47:05;;;;;;;29.77;4.63;;;10.50;99.90;;;;;;5114896;28;20117;-84
2024/01/22 10:49:32;;;;;;;32.35;5.38;;;9.50;99.90;;;;;;5115142;28;20043;-84
2024/01/22 10:52:02;;;;;;;31.50;4.55;;;10.50;99.90;;;;;;5116347;28;20396;-84
2024/01/22 10:54:28;;;;;;;24.02;3.75;;;9.50;99.90;;;;;;5115371;28;20051;-83
2024/01/22 10:57:03;;;;;;;30.83;4.55;;;10.60;99.90;;;;;;5113907;28;20087;-84
2024/01/22 10:59:37;;;;;;;22.63;4.45;;;10.50;99.90;;;;;;5115273;28;20046;-83
2024/01/22 11:02:06;;;;;;;23.88;3.78;;;9.50;99.90;;;;;;5114977;28;20169;-84
2024/01/22 11:05:24;;;;;;;20.10;3.53;;;9.40;99.90;;;;;;5116307;28;20075;-83
2024/01/22 11:07:53;;;;;;;26.15;4.40;;;9.50;99.90;;;;;;5109783;28;20130;-84
2024/01/22 11:10:20;;;;;;;19.23;2.58;;;10.50;99.90;;;;;;5116118;28;20063;-84
2024/01/22 11:12:51;;;;;;;23.27;3.70;;;9.50;99.90;;;;;;5098085;28;20047;-84
2024/01/22 11:15:17;;;;;;;22.25;3.65;;;10.10;99.90;;;;;;5116266;28;20055;-83
2024/01/22 11:17:43;;;;;;;28.05;3.78;;;9.70;99.90;;;;;;5114599;28;20051;-84
2024/01/22 11:20:17;;;;;;;34.50;3.60;;;10.50;99.90;;;;;;5115044;28;20396;-84
2024/01/22 11:23:02;;;;;;;31.70;4.25;;;9.30;99.90;;;;;;5114372;28;20044;-84
2024/01/22 11:25:32;;;;;;;19.45;3.63;;;9.50;99.90;;;;;;5115782;28;20112;-83
2024/01/22 11:28:03;;;;;;;20.13;3.40;;;10.20;99.90;;;;;;5114177;28;20131;-83
2024/01/22 11:30:32;;;;;;;26.95;4.10;;;9.50;99.90;;;;;;5114651;28;20093;-85
2024/01/22 11:32:58;;;;;;;23.48;3.58;;;9.60;99.90;;;;;;5114769;28;20054;-86
2024/01/22 11:35:34;;;;;;;18.85;3.55;;;10.10;99.90;;;;;;5115672;28;20119;-84
2024/01/22 11:38:01;;;;;;;26.27;4.40;;;9.70;99.90;;;;;;5113785;28;20456;-86
2024/01/22 11:40:46;;;;;;;23.67;3.58;;;10.00;99.90;;;;;;5113886;28;20040;-86
2024/01/22 11:43:13;;;;;;;24.35;3.85;;;9.80;99.90;;;;;;5114179;28;20130;-86
2024/01/22 11:45:38;;;;;;;26.75;3.72;;;9.90;99.90;;;;;;5114014;28;20055;-85
2024/01/22 11:48:15;;;;;;;17.98;3.10;;;9.80;99.90;;;;;;5114147;28;20048;-86
2024/01/22 11:50:41;;;;;;;25.52;3.60;;;9.90;99.90;;;;;;5097410;28;20063;-85
2024/01/22 11:53:07;;;;;;;24.73;3.65;;;9.80;99.90;;;;;;5113425;28;20051;-84
2024/01/22 11:55:32;;;;;;;19.13;3.22;;;9.90;99.90;;;;;;5114603;27;20043;-84
2024/01/22 11:57:58;;;;;;;29.38;4.05;;;9.90;99.90;;;;;;5113477;28;20040;-84
2024/01/22 12:00:24;;;;;;;24.90;3.70;;;9.90;99.90;;;;;;5113633;28;20066;-85
2024/01/22 12:02:51;;;;;;;17.10;3.13;;;10.00;99.90;;;;;;5096792;28;20035;-84
2024/01/22 12:05:17;;;;;;;22.67;3.72;;;9.90;99.90;;;;;;5114387;28;20051;-85
2024/01/22 12:07:46;;;;;;;26.00;3.72;;;9.90;99.90;;;;;;5113223;28;20047;-85
2024/01/22 12:10:20;;;;;;;26.15;4.22;;;10.50;99.90;;;;;;5113748;28;20059;-86
2024/01/22 12:12:56;;;;;;;30.13;4.20;;;9.90;99.90;;;;;;5115147;28;20426;-87
2024/01/22 12:15:29;;;;;;;21.17;3.10;;;9.90;99.90;;;;;;5114673;28;20047;-85
2024/01/22 12:17:55;;;;;;;19.65;2.92;;;11.10;99.90;;;;;;5113283;28;20474;-83
2024/01/22 12:20:23;;;;;;;25.15;3.47;;;10.40;99.90;;;;;;5114548;28;20119;-85
2024/01/22 12:22:59;;;;;;;25.20;3.10;;;10.00;99.90;;;;;;5113424;28;20087;-84
2024/01/22 12:25:44;;;;;;;21.92;3.17;;;10.00;99.90;;;;;;5114646;28;20097;-85
2024/01/22 12:28:11;;;;;;;25.30;3.65;;;10.00;99.90;;;;;;5112762;28;20051;-86
2024/01/22 12:30:38;;;;;;;19.75;2.95;;;10.20;99.90;;;;;;5114635;28;20050;-85
2024/01/22 12:33:04;;;;;;;29.52;3.67;;;11.10;99.90;;;;;;5096306;28;20044;-84
2024/01/22 12:35:31;;;;;;;23.80;3.30;;;10.00;99.90;;;;;;5114182;28;20047;-85
2024/01/22 12:37:57;;;;;;;21.50;2.85;;;10.10;99.90;;;;;;5112762;28;20047;-86
2024/01/22 12:40:24;;;;;;;20.85;3.28;;;10.00;99.90;;;;;;5114075;28;20040;-85
2024/01/22 12:42:57;;;;;;;20.00;3.55;;;10.10;99.90;;;;;;5113888;28;20061;-87
2024/01/22 12:45:23;;;;;;;16.02;3.08;;;10.50;99.90;;;;;;5111114;28;20047;-84
2024/01/22 12:47:50;;;;;;;25.55;3.38;;;10.00;99.90;;;;;;5113014;28;20400;-83